sensor_id;sensor_type;location;lat;lon;timestamp;temperature;humidity
14908;DHT22;7545;52.092;7.006;2022-07-09T00:01:46;18.40;99.90
14908;DHT22;7545;52.092;7.006;2022-07-09T00:04:12;18.30;99.90
14908;DHT22;7545;52.092;7.006;2022-07-09T00:06:37;18.30;99.90
14908;DHT22;7545;52.092;7.006;2022-07-09T00:09:03;18.20;99.90
14908;DHT22;7545;52.092;7.006;2022-07-09T00:11:29;18.20;99.90
14908;DHT22;7545;52.092;7.006;2022-07-09T00:13:54;18.20;99.90
14908;DHT22;7545;52.092;7.006;2022-07-09T00:16:20;18.20;99.90
14908;DHT22;7545;52.092;7.006;2022-07-09T00:18:46;18.20;99.90
14908;DHT22;7545;52.092;7.006;2022-07-09T00:21:11;18.20;99.90
14908;DHT22;7545;52.092;7.006;2022-07-09T00:23:37;18.10;99.90
14908;DHT22;7545;52.092;7.006;2022-07-09T00:26:02;18.10;99.90
14908;DHT22;7545;52.092;7.006;2022-07-09T00:28:28;18.10;99.90
14908;DHT22;7545;52.092;7.006;2022-07-09T00:30:54;18.10;99.90
14908;DHT22;7545;52.092;7.006;2022-07-09T00:33:19;18.10;99.90
14908;DHT22;7545;52.092;7.006;2022-07-09T00:35:45;18.10;99.90
14908;DHT22;7545;52.092;7.006;2022-07-09T00:38:11;18.10;99.90
14908;DHT22;7545;52.092;7.006;2022-07-09T00:40:36;18.10;99.90
14908;DHT22;7545;52.092;7.006;2022-07-09T00:43:02;18.10;99.90
14908;DHT22;7545;52.092;7.006;2022-07-09T00:45:28;18.10;99.90
14908;DHT22;7545;52.092;7.006;2022-07-09T00:47:54;18.10;99.90
14908;DHT22;7545;52.092;7.006;2022-07-09T00:50:19;18.20;99.90
14908;DHT22;7545;52.092;7.006;2022-07-09T00:52:45;18.20;99.90
14908;DHT22;7545;52.092;7.006;2022-07-09T00:55:13;18.20;99.90
14908;DHT22;7545;52.092;7.006;2022-07-09T00:57:40;18.20;99.90
14908;DHT22;7545;52.092;7.006;2022-07-09T01:00:07;18.30;99.90
14908;DHT22;7545;52.092;7.006;2022-07-09T01:02:33;18.30;99.90
14908;DHT22;7545;52.092;7.006;2022-07-09T01:04:59;18.30;99.90
14908;DHT22;7545;52.092;7.006;2022-07-09T01:07:25;18.30;99.90
14908;DHT22;7545;52.092;7.006;2022-07-09T01:09:50;18.30;99.90
14908;DHT22;7545;52.092;7.006;2022-07-09T01:12:16;18.30;99.90
14908;DHT22;7545;52.092;7.006;2022-07-09T01:14:42;18.30;99.90
14908;DHT22;7545;52.092;7.006;2022-07-09T01:17:08;18.30;99.90
14908;DHT22;7545;52.092;7.006;2022-07-09T01:19:34;18.30;99.90
14908;DHT22;7545;52.092;7.006;2022-07-09T01:21:59;18.30;99.90
14908;DHT22;7545;52.092;7.006;2022-07-09T01:24:25;18.30;99.90
14908;DHT22;7545;52.092;7.006;2022-07-09T01:26:52;18.30;99.90
14908;DHT22;7545;52.092;7.006;2022-07-09T01:29:19;18.20;99.90
14908;DHT22;7545;52.092;7.006;2022-07-09T01:31:45;18.20;99.90
14908;DHT22;7545;52.092;7.006;2022-07-09T01:34:11;18.20;99.90
14908;DHT22;7545;52.092;7.006;2022-07-09T01:36:36;18.20;99.90
14908;DHT22;7545;52.092;7.006;2022-07-09T01:39:03;18.20;99.90
14908;DHT22;7545;52.092;7.006;2022-07-09T01:41:28;18.10;99.90
14908;DHT22;7545;52.092;7.006;2022-07-09T01:43:56;18.20;99.90
14908;DHT22;7545;52.092;7.006;2022-07-09T01:46:21;18.20;99.90
14908;DHT22;7545;52.092;7.006;2022-07-09T01:48:47;18.20;99.90
14908;DHT22;7545;52.092;7.006;2022-07-09T01:51:13;18.20;99.90
14908;DHT22;7545;52.092;7.006;2022-07-09T01:53:39;18.20;99.90
14908;DHT22;7545;52.092;7.006;2022-07-09T01:56:09;18.20;99.90
14908;DHT22;7545;52.092;7.006;2022-07-09T01:58:35;18.20;99.90
14908;DHT22;7545;52.092;7.006;2022-07-09T02:01:02;18.20;99.90
14908;DHT22;7545;52.092;7.006;2022-07-09T02:03:28;18.20;99.90
14908;DHT22;7545;52.092;7.006;2022-07-09T02:05:53;18.20;99.90
14908;DHT22;7545;52.092;7.006;2022-07-09T02:08:19;18.20;99.90
14908;DHT22;7545;52.092;7.006;2022-07-09T02:10:45;18.20;99.90
14908;DHT22;7545;52.092;7.006;2022-07-09T02:13:14;18.20;99.90
14908;DHT22;7545;52.092;7.006;2022-07-09T02:15:39;18.20;99.90
14908;DHT22;7545;52.092;7.006;2022-07-09T02:18:05;18.10;99.90
14908;DHT22;7545;52.092;7.006;2022-07-09T02:20:31;18.20;99.90
14908;DHT22;7545;52.092;7.006;2022-07-09T02:22:57;18.20;99.90
14908;DHT22;7545;52.092;7.006;2022-07-09T02:25:23;18.20;99.90
14908;DHT22;7545;52.092;7.006;2022-07-09T02:27:49;18.20;99.90
14908;DHT22;7545;52.092;7.006;2022-07-09T02:30:14;18.20;99.90
14908;DHT22;7545;52.092;7.006;2022-07-09T02:32:40;18.20;99.90
14908;DHT22;7545;52.092;7.006;2022-07-09T02:35:06;18.20;99.90
14908;DHT22;7545;52.092;7.006;2022-07-09T02:37:33;18.10;99.90
14908;DHT22;7545;52.092;7.006;2022-07-09T02:39:59;18.20;99.90
14908;DHT22;7545;52.092;7.006;2022-07-09T02:42:25;18.20;99.90
14908;DHT22;7545;52.092;7.006;2022-07-09T02:44:50;18.20;99.90
14908;DHT22;7545;52.092;7.006;2022-07-09T02:47:16;18.10;99.90
14908;DHT22;7545;52.092;7.006;2022-07-09T02:49:41;18.10;99.90
14908;DHT22;7545;52.092;7.006;2022-07-09T02:52:07;18.10;99.90
14908;DHT22;7545;52.092;7.006;2022-07-09T02:54:33;18.10;99.90
14908;DHT22;7545;52.092;7.006;2022-07-09T02:56:59;18.10;99.90
14908;DHT22;7545;52.092;7.006;2022-07-09T02:59:25;18.10;99.90
14908;DHT22;7545;52.092;7.006;2022-07-09T03:01:51;18.10;99.90
14908;DHT22;7545;52.092;7.006;2022-07-09T03:04:17;18.00;99.90
14908;DHT22;7545;52.092;7.006;2022-07-09T03:06:43;18.00;99.90
14908;DHT22;7545;52.092;7.006;2022-07-09T03:09:08;18.00;99.90
14908;DHT22;7545;52.092;7.006;2022-07-09T03:11:34;18.00;99.90
14908;DHT22;7545;52.092;7.006;2022-07-09T03:14:00;18.00;99.90
14908;DHT22;7545;52.092;7.006;2022-07-09T03:16:25;18.00;99.90
14908;DHT22;7545;52.092;7.006;2022-07-09T03:18:51;18.00;99.90
14908;DHT22;7545;52.092;7.006;2022-07-09T03:21:17;18.00;99.90
14908;DHT22;7545;52.092;7.006;2022-07-09T03:23:43;18.00;99.90
14908;DHT22;7545;52.092;7.006;2022-07-09T03:26:08;18.00;99.90
14908;DHT22;7545;52.092;7.006;2022-07-09T03:28:35;18.00;99.90
14908;DHT22;7545;52.092;7.006;2022-07-09T03:31:01;18.00;99.90
14908;DHT22;7545;52.092;7.006;2022-07-09T03:33:27;18.00;99.90
14908;DHT22;7545;52.092;7.006;2022-07-09T03:35:56;18.00;99.90
14908;DHT22;7545;52.092;7.006;2022-07-09T03:38:22;18.00;99.90
14908;DHT22;7545;52.092;7.006;2022-07-09T03:40:48;18.00;99.90
14908;DHT22;7545;52.092;7.006;2022-07-09T03:43:13;18.00;99.90
14908;DHT22;7545;52.092;7.006;2022-07-09T03:45:39;18.00;99.90
14908;DHT22;7545;52.092;7.006;2022-07-09T03:48:05;18.00;99.90
14908;DHT22;7545;52.092;7.006;2022-07-09T03:50:31;18.00;99.90
14908;DHT22;7545;52.092;7.006;2022-07-09T03:52:56;18.00;99.90
14908;DHT22;7545;52.092;7.006;2022-07-09T03:55:23;18.00;99.90
14908;DHT22;7545;52.092;7.006;2022-07-09T03:57:49;18.00;99.90
14908;DHT22;7545;52.092;7.006;2022-07-09T04:00:14;18.00;99.90
14908;DHT22;7545;52.092;7.006;2022-07-09T04:02:40;18.00;99.90
14908;DHT22;7545;52.092;7.006;2022-07-09T04:05:07;18.00;99.90
14908;DHT22;7545;52.092;7.006;2022-07-09T04:07:33;18.00;99.90
14908;DHT22;7545;52.092;7.006;2022-07-09T04:09:58;18.10;99.90
14908;DHT22;7545;52.092;7.006;2022-07-09T04:12:24;18.00;99.90
14908;DHT22;7545;52.092;7.006;2022-07-09T04:14:51;18.00;99.90
14908;DHT22;7545;52.092;7.006;2022-07-09T04:17:16;18.00;99.90
14908;DHT22;7545;52.092;7.006;2022-07-09T04:19:42;18.00;99.90
14908;DHT22;7545;52.092;7.006;2022-07-09T04:22:07;18.00;99.90
14908;DHT22;7545;52.092;7.006;2022-07-09T04:24:33;17.90;99.90
14908;DHT22;7545;52.092;7.006;2022-07-09T04:26:58;17.90;99.90
14908;DHT22;7545;52.092;7.006;2022-07-09T04:29:24;17.90;99.90
14908;DHT22;7545;52.092;7.006;2022-07-09T04:31:50;17.90;99.90
14908;DHT22;7545;52.092;7.006;2022-07-09T04:34:15;17.90;99.90
14908;DHT22;7545;52.092;7.006;2022-07-09T04:36:41;17.90;99.90
14908;DHT22;7545;52.092;7.006;2022-07-09T04:39:07;17.90;99.90
14908;DHT22;7545;52.092;7.006;2022-07-09T04:41:32;17.90;99.90
14908;DHT22;7545;52.092;7.006;2022-07-09T04:43:58;17.90;99.90
14908;DHT22;7545;52.092;7.006;2022-07-09T04:46:23;17.90;99.90
14908;DHT22;7545;52.092;7.006;2022-07-09T04:48:52;17.90;99.90
14908;DHT22;7545;52.092;7.006;2022-07-09T04:51:19;17.90;99.90
14908;DHT22;7545;52.092;7.006;2022-07-09T04:53:44;17.90;99.90
14908;DHT22;7545;52.092;7.006;2022-07-09T04:56:10;17.90;99.90
14908;DHT22;7545;52.092;7.006;2022-07-09T04:58:36;17.90;99.90
14908;DHT22;7545;52.092;7.006;2022-07-09T05:01:03;17.90;99.90
14908;DHT22;7545;52.092;7.006;2022-07-09T05:03:28;17.90;99.90
14908;DHT22;7545;52.092;7.006;2022-07-09T05:05:54;17.90;99.90
14908;DHT22;7545;52.092;7.006;2022-07-09T05:08:20;17.90;99.90
14908;DHT22;7545;52.092;7.006;2022-07-09T05:10:45;17.90;99.90
14908;DHT22;7545;52.092;7.006;2022-07-09T05:13:11;17.90;99.90
14908;DHT22;7545;52.092;7.006;2022-07-09T05:15:36;17.90;99.90
14908;DHT22;7545;52.092;7.006;2022-07-09T05:18:02;17.90;99.90
14908;DHT22;7545;52.092;7.006;2022-07-09T05:20:28;18.00;99.90
14908;DHT22;7545;52.092;7.006;2022-07-09T05:22:54;18.00;99.90
14908;DHT22;7545;52.092;7.006;2022-07-09T05:25:20;18.00;99.90
14908;DHT22;7545;52.092;7.006;2022-07-09T05:27:46;18.00;99.90
14908;DHT22;7545;52.092;7.006;2022-07-09T05:30:13;18.00;99.90
14908;DHT22;7545;52.092;7.006;2022-07-09T05:32:41;18.00;99.90
14908;DHT22;7545;52.092;7.006;2022-07-09T05:35:07;18.10;99.90
14908;DHT22;7545;52.092;7.006;2022-07-09T05:37:33;18.10;99.90
14908;DHT22;7545;52.092;7.006;2022-07-09T05:40:00;18.00;99.90
14908;DHT22;7545;52.092;7.006;2022-07-09T05:42:31;18.10;99.90
14908;DHT22;7545;52.092;7.006;2022-07-09T05:44:58;18.10;99.90
14908;DHT22;7545;52.092;7.006;2022-07-09T05:47:23;18.20;99.90
14908;DHT22;7545;52.092;7.006;2022-07-09T05:49:49;18.10;99.90
14908;DHT22;7545;52.092;7.006;2022-07-09T05:52:14;18.20;99.90
14908;DHT22;7545;52.092;7.006;2022-07-09T05:54:40;18.20;99.90
14908;DHT22;7545;52.092;7.006;2022-07-09T05:57:06;18.20;99.90
14908;DHT22;7545;52.092;7.006;2022-07-09T05:59:31;18.30;99.90
14908;DHT22;7545;52.092;7.006;2022-07-09T06:01:57;18.30;99.90
14908;DHT22;7545;52.092;7.006;2022-07-09T06:04:22;18.30;99.90
14908;DHT22;7545;52.092;7.006;2022-07-09T06:06:48;18.30;99.90
14908;DHT22;7545;52.092;7.006;2022-07-09T06:09:14;18.30;99.90
14908;DHT22;7545;52.092;7.006;2022-07-09T06:11:40;18.30;99.90
14908;DHT22;7545;52.092;7.006;2022-07-09T06:14:06;18.40;99.90
14908;DHT22;7545;52.092;7.006;2022-07-09T06:16:31;18.40;99.90
14908;DHT22;7545;52.092;7.006;2022-07-09T06:18:57;18.40;99.90
14908;DHT22;7545;52.092;7.006;2022-07-09T06:21:22;18.40;99.90
14908;DHT22;7545;52.092;7.006;2022-07-09T06:23:48;18.50;99.90
14908;DHT22;7545;52.092;7.006;2022-07-09T06:26:14;18.50;99.90
14908;DHT22;7545;52.092;7.006;2022-07-09T06:28:39;18.50;99.90
14908;DHT22;7545;52.092;7.006;2022-07-09T06:31:05;18.50;99.90
14908;DHT22;7545;52.092;7.006;2022-07-09T06:33:31;18.60;99.90
14908;DHT22;7545;52.092;7.006;2022-07-09T06:35:56;18.60;99.90
14908;DHT22;7545;52.092;7.006;2022-07-09T06:38:22;18.70;99.90
14908;DHT22;7545;52.092;7.006;2022-07-09T06:40:47;18.70;99.90
14908;DHT22;7545;52.092;7.006;2022-07-09T06:43:13;18.70;99.90
14908;DHT22;7545;52.092;7.006;2022-07-09T06:45:39;18.70;99.90
14908;DHT22;7545;52.092;7.006;2022-07-09T06:48:05;18.80;99.90
14908;DHT22;7545;52.092;7.006;2022-07-09T06:50:30;18.80;99.90
14908;DHT22;7545;52.092;7.006;2022-07-09T06:52:56;18.80;99.90
14908;DHT22;7545;52.092;7.006;2022-07-09T06:55:21;18.80;99.90
14908;DHT22;7545;52.092;7.006;2022-07-09T06:57:47;18.90;99.90
14908;DHT22;7545;52.092;7.006;2022-07-09T07:00:13;18.90;99.90
14908;DHT22;7545;52.092;7.006;2022-07-09T07:02:39;18.90;99.90
14908;DHT22;7545;52.092;7.006;2022-07-09T07:05:05;19.00;99.90
14908;DHT22;7545;52.092;7.006;2022-07-09T07:07:31;19.00;99.90
14908;DHT22;7545;52.092;7.006;2022-07-09T07:09:56;19.00;99.90
14908;DHT22;7545;52.092;7.006;2022-07-09T07:12:22;19.00;99.90
14908;DHT22;7545;52.092;7.006;2022-07-09T07:14:48;19.10;99.90
14908;DHT22;7545;52.092;7.006;2022-07-09T07:17:14;19.10;99.90
14908;DHT22;7545;52.092;7.006;2022-07-09T07:19:39;19.20;99.90
14908;DHT22;7545;52.092;7.006;2022-07-09T07:22:05;19.20;99.90
14908;DHT22;7545;52.092;7.006;2022-07-09T07:24:31;19.30;99.90
14908;DHT22;7545;52.092;7.006;2022-07-09T07:26:57;19.30;99.90
14908;DHT22;7545;52.092;7.006;2022-07-09T07:29:23;19.30;99.90
14908;DHT22;7545;52.092;7.006;2022-07-09T07:31:49;19.30;99.90
14908;DHT22;7545;52.092;7.006;2022-07-09T07:34:15;19.30;99.90
14908;DHT22;7545;52.092;7.006;2022-07-09T07:36:41;19.40;99.90
14908;DHT22;7545;52.092;7.006;2022-07-09T07:39:07;19.40;99.90
14908;DHT22;7545;52.092;7.006;2022-07-09T07:41:32;19.40;99.90
14908;DHT22;7545;52.092;7.006;2022-07-09T07:43:58;19.50;99.90
14908;DHT22;7545;52.092;7.006;2022-07-09T07:46:23;19.50;99.90
14908;DHT22;7545;52.092;7.006;2022-07-09T07:48:49;19.50;99.90
14908;DHT22;7545;52.092;7.006;2022-07-09T07:51:16;19.60;99.90
14908;DHT22;7545;52.092;7.006;2022-07-09T07:53:41;19.60;99.90
14908;DHT22;7545;52.092;7.006;2022-07-09T07:56:08;19.70;99.90
14908;DHT22;7545;52.092;7.006;2022-07-09T07:58:34;19.70;99.90
14908;DHT22;7545;52.092;7.006;2022-07-09T08:01:01;19.80;99.90
14908;DHT22;7545;52.092;7.006;2022-07-09T08:03:26;19.80;99.90
14908;DHT22;7545;52.092;7.006;2022-07-09T08:05:52;19.80;99.90
14908;DHT22;7545;52.092;7.006;2022-07-09T08:08:18;19.90;99.90
14908;DHT22;7545;52.092;7.006;2022-07-09T08:10:44;19.90;99.90
14908;DHT22;7545;52.092;7.006;2022-07-09T08:13:10;19.90;99.90
14908;DHT22;7545;52.092;7.006;2022-07-09T08:15:37;19.90;99.90
14908;DHT22;7545;52.092;7.006;2022-07-09T08:18:03;20.00;99.90
14908;DHT22;7545;52.092;7.006;2022-07-09T08:20:29;20.00;99.90
14908;DHT22;7545;52.092;7.006;2022-07-09T08:22:54;20.10;99.90
14908;DHT22;7545;52.092;7.006;2022-07-09T08:25:20;20.10;99.90
14908;DHT22;7545;52.092;7.006;2022-07-09T08:27:45;20.20;99.90
14908;DHT22;7545;52.092;7.006;2022-07-09T08:30:11;20.20;99.90
14908;DHT22;7545;52.092;7.006;2022-07-09T08:32:37;20.30;99.90
14908;DHT22;7545;52.092;7.006;2022-07-09T08:35:05;20.30;99.90
14908;DHT22;7545;52.092;7.006;2022-07-09T08:37:30;20.40;99.90
14908;DHT22;7545;52.092;7.006;2022-07-09T08:39:56;20.40;99.90
14908;DHT22;7545;52.092;7.006;2022-07-09T08:42:22;20.40;99.90
14908;DHT22;7545;52.092;7.006;2022-07-09T08:44:48;20.50;99.90
14908;DHT22;7545;52.092;7.006;2022-07-09T08:47:14;20.50;99.90
14908;DHT22;7545;52.092;7.006;2022-07-09T08:49:41;20.60;99.90
14908;DHT22;7545;52.092;7.006;2022-07-09T08:52:07;20.60;99.90
14908;DHT22;7545;52.092;7.006;2022-07-09T08:54:35;20.60;99.90
14908;DHT22;7545;52.092;7.006;2022-07-09T08:57:04;20.60;99.90
14908;DHT22;7545;52.092;7.006;2022-07-09T08:59:29;20.70;99.90
14908;DHT22;7545;52.092;7.006;2022-07-09T09:01:55;20.70;99.90
14908;DHT22;7545;52.092;7.006;2022-07-09T09:04:21;20.70;99.90
14908;DHT22;7545;52.092;7.006;2022-07-09T09:06:47;20.70;99.90
14908;DHT22;7545;52.092;7.006;2022-07-09T09:09:18;20.70;99.90
14908;DHT22;7545;52.092;7.006;2022-07-09T09:11:47;20.70;99.90
14908;DHT22;7545;52.092;7.006;2022-07-09T09:14:20;20.70;99.90
14908;DHT22;7545;52.092;7.006;2022-07-09T09:16:46;20.80;99.90
14908;DHT22;7545;52.092;7.006;2022-07-09T09:19:12;20.80;99.90
14908;DHT22;7545;52.092;7.006;2022-07-09T09:21:37;20.80;99.90
14908;DHT22;7545;52.092;7.006;2022-07-09T09:24:03;20.80;99.90
14908;DHT22;7545;52.092;7.006;2022-07-09T09:26:29;20.90;99.90
14908;DHT22;7545;52.092;7.006;2022-07-09T09:29:00;21.00;99.90
14908;DHT22;7545;52.092;7.006;2022-07-09T09:36:38;21.10;99.90
14908;DHT22;7545;52.092;7.006;2022-07-09T09:39:08;21.20;99.90
14908;DHT22;7545;52.092;7.006;2022-07-09T09:41:34;21.20;99.90
14908;DHT22;7545;52.092;7.006;2022-07-09T09:44:05;21.30;99.90
14908;DHT22;7545;52.092;7.006;2022-07-09T09:46:34;21.30;99.90
14908;DHT22;7545;52.092;7.006;2022-07-09T09:49:00;21.30;99.90
14908;DHT22;7545;52.092;7.006;2022-07-09T09:51:31;21.30;99.90
14908;DHT22;7545;52.092;7.006;2022-07-09T09:54:00;21.30;99.90
14908;DHT22;7545;52.092;7.006;2022-07-09T09:56:28;21.20;99.90
14908;DHT22;7545;52.092;7.006;2022-07-09T09:58:54;21.20;99.90
14908;DHT22;7545;52.092;7.006;2022-07-09T10:01:20;21.10;99.90
14908;DHT22;7545;52.092;7.006;2022-07-09T10:03:47;21.20;99.90
14908;DHT22;7545;52.092;7.006;2022-07-09T10:06:13;21.20;99.90
14908;DHT22;7545;52.092;7.006;2022-07-09T10:08:38;21.20;99.90
14908;DHT22;7545;52.092;7.006;2022-07-09T10:11:04;21.20;99.90
14908;DHT22;7545;52.092;7.006;2022-07-09T10:13:30;21.20;99.90
14908;DHT22;7545;52.092;7.006;2022-07-09T10:15:55;21.20;99.90
14908;DHT22;7545;52.092;7.006;2022-07-09T10:18:21;21.20;99.90
14908;DHT22;7545;52.092;7.006;2022-07-09T10:20:46;21.30;99.90
14908;DHT22;7545;52.092;7.006;2022-07-09T10:23:22;21.30;99.90
14908;DHT22;7545;52.092;7.006;2022-07-09T10:25:50;21.30;99.90
14908;DHT22;7545;52.092;7.006;2022-07-09T10:28:22;21.20;99.90
14908;DHT22;7545;52.092;7.006;2022-07-09T10:30:48;21.30;99.90
14908;DHT22;7545;52.092;7.006;2022-07-09T10:33:20;21.30;99.90
14908;DHT22;7545;52.092;7.006;2022-07-09T10:35:49;21.30;99.90
14908;DHT22;7545;52.092;7.006;2022-07-09T10:38:17;21.40;99.90
14908;DHT22;7545;52.092;7.006;2022-07-09T10:40:45;21.50;99.90
14908;DHT22;7545;52.092;7.006;2022-07-09T10:43:12;21.50;99.90
14908;DHT22;7545;52.092;7.006;2022-07-09T10:45:45;21.50;99.90
14908;DHT22;7545;52.092;7.006;2022-07-09T10:48:12;21.40;99.90
14908;DHT22;7545;52.092;7.006;2022-07-09T10:50:41;21.40;99.90
14908;DHT22;7545;52.092;7.006;2022-07-09T10:53:07;21.40;99.90
14908;DHT22;7545;52.092;7.006;2022-07-09T10:55:33;21.40;99.90
14908;DHT22;7545;52.092;7.006;2022-07-09T10:57:59;21.40;99.90
14908;DHT22;7545;52.092;7.006;2022-07-09T11:00:27;21.40;99.90
14908;DHT22;7545;52.092;7.006;2022-07-09T11:02:57;21.50;99.90
14908;DHT22;7545;52.092;7.006;2022-07-09T11:05:24;21.60;99.90
14908;DHT22;7545;52.092;7.006;2022-07-09T11:07:58;21.70;99.90
14908;DHT22;7545;52.092;7.006;2022-07-09T11:10:24;21.70;99.90
14908;DHT22;7545;52.092;7.006;2022-07-09T11:12:51;21.80;99.90
14908;DHT22;7545;52.092;7.006;2022-07-09T11:15:20;21.90;99.90
14908;DHT22;7545;52.092;7.006;2022-07-09T11:17:57;22.00;99.90
14908;DHT22;7545;52.092;7.006;2022-07-09T11:20:23;22.00;99.90
14908;DHT22;7545;52.092;7.006;2022-07-09T11:22:49;22.10;99.90
14908;DHT22;7545;52.092;7.006;2022-07-09T11:25:15;22.20;99.90
14908;DHT22;7545;52.092;7.006;2022-07-09T11:27:41;22.10;99.90
14908;DHT22;7545;52.092;7.006;2022-07-09T11:30:15;22.10;99.90
14908;DHT22;7545;52.092;7.006;2022-07-09T11:32:44;22.20;99.90
14908;DHT22;7545;52.092;7.006;2022-07-09T11:35:10;22.30;99.90
14908;DHT22;7545;52.092;7.006;2022-07-09T11:37:38;22.40;99.90
14908;DHT22;7545;52.092;7.006;2022-07-09T11:40:19;22.50;99.90
14908;DHT22;7545;52.092;7.006;2022-07-09T11:42:45;22.70;99.90
14908;DHT22;7545;52.092;7.006;2022-07-09T11:45:10;22.80;99.90
14908;DHT22;7545;52.092;7.006;2022-07-09T11:47:38;22.90;99.90
14908;DHT22;7545;52.092;7.006;2022-07-09T11:50:12;23.00;99.90
14908;DHT22;7545;52.092;7.006;2022-07-09T11:52:48;23.10;99.90
14908;DHT22;7545;52.092;7.006;2022-07-09T11:55:19;23.20;99.90
14908;DHT22;7545;52.092;7.006;2022-07-09T11:57:55;23.30;99.90
14908;DHT22;7545;52.092;7.006;2022-07-09T12:00:29;23.40;99.90
14908;DHT22;7545;52.092;7.006;2022-07-09T12:02:58;23.40;99.90
14908;DHT22;7545;52.092;7.006;2022-07-09T12:05:36;23.40;99.90
14908;DHT22;7545;52.092;7.006;2022-07-09T12:08:07;23.50;99.90
14908;DHT22;7545;52.092;7.006;2022-07-09T12:10:37;23.50;99.90
14908;DHT22;7545;52.092;7.006;2022-07-09T12:13:04;23.60;99.90
14908;DHT22;7545;52.092;7.006;2022-07-09T12:15:30;23.60;99.90
14908;DHT22;7545;52.092;7.006;2022-07-09T12:18:00;23.60;99.90
14908;DHT22;7545;52.092;7.006;2022-07-09T12:20:28;23.50;99.90
14908;DHT22;7545;52.092;7.006;2022-07-09T12:22:54;23.60;99.90
14908;DHT22;7545;52.092;7.006;2022-07-09T12:25:20;23.60;99.90
14908;DHT22;7545;52.092;7.006;2022-07-09T12:27:47;23.70;99.90
14908;DHT22;7545;52.092;7.006;2022-07-09T12:30:14;23.70;99.90
14908;DHT22;7545;52.092;7.006;2022-07-09T12:32:41;23.70;99.90
14908;DHT22;7545;52.092;7.006;2022-07-09T12:35:07;23.60;99.90
14908;DHT22;7545;52.092;7.006;2022-07-09T12:37:33;23.60;99.90
14908;DHT22;7545;52.092;7.006;2022-07-09T12:40:00;23.60;99.90
14908;DHT22;7545;52.092;7.006;2022-07-09T12:42:25;23.60;99.90
14908;DHT22;7545;52.092;7.006;2022-07-09T12:44:52;23.60;99.90
14908;DHT22;7545;52.092;7.006;2022-07-09T12:47:18;23.70;99.90
14908;DHT22;7545;52.092;7.006;2022-07-09T12:49:43;23.80;99.90
14908;DHT22;7545;52.092;7.006;2022-07-09T12:52:09;23.80;99.90
14908;DHT22;7545;52.092;7.006;2022-07-09T12:54:35;23.80;99.90
14908;DHT22;7545;52.092;7.006;2022-07-09T12:57:00;23.80;99.90
14908;DHT22;7545;52.092;7.006;2022-07-09T12:59:26;23.80;99.90
14908;DHT22;7545;52.092;7.006;2022-07-09T13:01:52;23.90;99.90
14908;DHT22;7545;52.092;7.006;2022-07-09T13:04:18;23.90;99.90
14908;DHT22;7545;52.092;7.006;2022-07-09T13:06:43;24.00;99.90
14908;DHT22;7545;52.092;7.006;2022-07-09T13:09:10;24.00;99.90
14908;DHT22;7545;52.092;7.006;2022-07-09T13:11:36;24.10;99.90
14908;DHT22;7545;52.092;7.006;2022-07-09T13:14:03;24.30;99.90
14908;DHT22;7545;52.092;7.006;2022-07-09T13:16:29;24.40;99.90
14908;DHT22;7545;52.092;7.006;2022-07-09T13:18:55;24.40;99.90
14908;DHT22;7545;52.092;7.006;2022-07-09T13:21:21;24.30;99.90
14908;DHT22;7545;52.092;7.006;2022-07-09T13:23:48;24.30;99.90
14908;DHT22;7545;52.092;7.006;2022-07-09T13:26:14;24.20;99.90
14908;DHT22;7545;52.092;7.006;2022-07-09T13:28:40;24.20;99.90
14908;DHT22;7545;52.092;7.006;2022-07-09T13:31:06;24.10;99.90
14908;DHT22;7545;52.092;7.006;2022-07-09T13:33:32;24.20;99.90
14908;DHT22;7545;52.092;7.006;2022-07-09T13:35:59;24.20;99.90
14908;DHT22;7545;52.092;7.006;2022-07-09T13:38:25;24.10;99.90
14908;DHT22;7545;52.092;7.006;2022-07-09T13:40:50;24.20;99.90
14908;DHT22;7545;52.092;7.006;2022-07-09T13:43:16;24.30;99.90
14908;DHT22;7545;52.092;7.006;2022-07-09T13:45:42;24.30;99.90
14908;DHT22;7545;52.092;7.006;2022-07-09T13:48:07;24.20;99.90
14908;DHT22;7545;52.092;7.006;2022-07-09T13:50:33;24.10;99.90
14908;DHT22;7545;52.092;7.006;2022-07-09T13:52:59;24.10;99.90
14908;DHT22;7545;52.092;7.006;2022-07-09T13:55:26;24.10;99.90
14908;DHT22;7545;52.092;7.006;2022-07-09T13:57:52;24.10;99.90
14908;DHT22;7545;52.092;7.006;2022-07-09T14:00:17;24.10;99.90
14908;DHT22;7545;52.092;7.006;2022-07-09T14:02:43;24.00;99.90
14908;DHT22;7545;52.092;7.006;2022-07-09T14:05:09;23.90;99.90
14908;DHT22;7545;52.092;7.006;2022-07-09T14:07:34;23.90;99.90
14908;DHT22;7545;52.092;7.006;2022-07-09T14:10:01;24.00;99.90
14908;DHT22;7545;52.092;7.006;2022-07-09T14:12:27;24.10;99.90
14908;DHT22;7545;52.092;7.006;2022-07-09T14:14:52;24.20;99.90
14908;DHT22;7545;52.092;7.006;2022-07-09T14:17:18;24.20;99.90
14908;DHT22;7545;52.092;7.006;2022-07-09T14:19:44;24.40;99.90
14908;DHT22;7545;52.092;7.006;2022-07-09T14:22:10;24.30;99.90
14908;DHT22;7545;52.092;7.006;2022-07-09T14:24:36;24.20;99.90
14908;DHT22;7545;52.092;7.006;2022-07-09T14:27:02;24.00;99.90
14908;DHT22;7545;52.092;7.006;2022-07-09T14:29:28;23.90;99.90
14908;DHT22;7545;52.092;7.006;2022-07-09T14:31:53;23.80;99.90
14908;DHT22;7545;52.092;7.006;2022-07-09T14:34:20;23.70;99.90
14908;DHT22;7545;52.092;7.006;2022-07-09T14:36:46;23.70;99.90
14908;DHT22;7545;52.092;7.006;2022-07-09T14:39:13;23.80;99.90
14908;DHT22;7545;52.092;7.006;2022-07-09T14:41:39;23.80;99.90
14908;DHT22;7545;52.092;7.006;2022-07-09T14:44:05;23.80;99.90
14908;DHT22;7545;52.092;7.006;2022-07-09T14:46:30;23.80;99.90
14908;DHT22;7545;52.092;7.006;2022-07-09T14:48:56;23.80;99.90
14908;DHT22;7545;52.092;7.006;2022-07-09T14:51:22;23.90;99.90
14908;DHT22;7545;52.092;7.006;2022-07-09T14:53:47;23.80;99.90
14908;DHT22;7545;52.092;7.006;2022-07-09T14:56:13;23.70;99.90
14908;DHT22;7545;52.092;7.006;2022-07-09T14:58:39;23.80;99.90
14908;DHT22;7545;52.092;7.006;2022-07-09T15:01:05;23.80;99.90
14908;DHT22;7545;52.092;7.006;2022-07-09T15:03:31;23.80;99.90
14908;DHT22;7545;52.092;7.006;2022-07-09T15:05:56;23.80;99.90
14908;DHT22;7545;52.092;7.006;2022-07-09T15:08:22;23.80;99.90
14908;DHT22;7545;52.092;7.006;2022-07-09T15:10:48;23.80;99.90
14908;DHT22;7545;52.092;7.006;2022-07-09T15:13:14;23.80;99.90
14908;DHT22;7545;52.092;7.006;2022-07-09T15:15:39;23.80;99.90
14908;DHT22;7545;52.092;7.006;2022-07-09T15:18:05;23.80;99.90
14908;DHT22;7545;52.092;7.006;2022-07-09T15:20:32;23.70;99.90
14908;DHT22;7545;52.092;7.006;2022-07-09T15:22:58;23.60;99.90
14908;DHT22;7545;52.092;7.006;2022-07-09T15:25:24;23.40;99.90
14908;DHT22;7545;52.092;7.006;2022-07-09T15:27:51;23.40;99.90
14908;DHT22;7545;52.092;7.006;2022-07-09T15:30:17;23.40;99.90
14908;DHT22;7545;52.092;7.006;2022-07-09T15:32:45;23.20;99.90
14908;DHT22;7545;52.092;7.006;2022-07-09T15:35:10;23.10;99.90
14908;DHT22;7545;52.092;7.006;2022-07-09T15:37:39;23.10;99.90
14908;DHT22;7545;52.092;7.006;2022-07-09T15:40:05;23.00;99.90
14908;DHT22;7545;52.092;7.006;2022-07-09T15:42:31;23.00;99.90
14908;DHT22;7545;52.092;7.006;2022-07-09T15:44:57;23.00;99.90